sensor_id;sensor_type;location;lat;lon;timestamp;temperature;humidity
53643;DHT22;39546;45.534;12.048;2022-10-23T00:00:56;17.50;86.40
53643;DHT22;39546;45.534;12.048;2022-10-23T00:06:58;17.60;86.50
53643;DHT22;39546;45.534;12.048;2022-10-23T00:13:00;17.50;86.60
53643;DHT22;39546;45.534;12.048;2022-10-23T00:19:03;17.50;86.50
53643;DHT22;39546;45.534;12.048;2022-10-23T00:25:07;17.50;86.40
53643;DHT22;39546;45.534;12.048;2022-10-23T00:31:10;17.50;86.60
53643;DHT22;39546;45.534;12.048;2022-10-23T00:37:14;17.40;86.60
53643;DHT22;39546;45.534;12.048;2022-10-23T00:43:24;17.40;86.60
53643;DHT22;39546;45.534;12.048;2022-10-23T00:49:27;17.40;86.50
53643;DHT22;39546;45.534;12.048;2022-10-23T00:55:30;17.40;86.40
53643;DHT22;39546;45.534;12.048;2022-10-23T01:01:33;17.50;86.40
53643;DHT22;39546;45.534;12.048;2022-10-23T01:20:31;17.40;86.40
53643;DHT22;39546;45.534;12.048;2022-10-23T01:33:52;17.30;86.50
53643;DHT22;39546;45.534;12.048;2022-10-23T01:39:48;17.20;86.50
53643;DHT22;39546;45.534;12.048;2022-10-23T01:45:56;17.20;86.60
53643;DHT22;39546;45.534;12.048;2022-10-23T01:52:02;17.20;86.50
53643;DHT22;39546;45.534;12.048;2022-10-23T01:58:07;17.10;86.60
53643;DHT22;39546;45.534;12.048;2022-10-23T02:04:14;17.20;86.60
53643;DHT22;39546;45.534;12.048;2022-10-23T02:10:18;17.20;86.70
53643;DHT22;39546;45.534;12.048;2022-10-23T02:16:50;17.20;86.60
53643;DHT22;39546;45.534;12.048;2022-10-23T02:22:59;17.10;86.50
53643;DHT22;39546;45.534;12.048;2022-10-23T02:29:24;17.10;86.60
53643;DHT22;39546;45.534;12.048;2022-10-23T02:35:31;17.00;86.70
53643;DHT22;39546;45.534;12.048;2022-10-23T02:41:43;17.00;86.60
53643;DHT22;39546;45.534;12.048;2022-10-23T02:47:59;16.90;86.70
53643;DHT22;39546;45.534;12.048;2022-10-23T02:54:14;16.90;86.60
53643;DHT22;39546;45.534;12.048;2022-10-23T03:00:22;16.90;86.50
53643;DHT22;39546;45.534;12.048;2022-10-23T03:06:25;16.90;86.60
53643;DHT22;39546;45.534;12.048;2022-10-23T03:12:27;16.90;86.80
53643;DHT22;39546;45.534;12.048;2022-10-23T03:18:29;16.90;86.70
53643;DHT22;39546;45.534;12.048;2022-10-23T03:24:32;16.80;86.70
53643;DHT22;39546;45.534;12.048;2022-10-23T03:30:34;16.80;86.70
53643;DHT22;39546;45.534;12.048;2022-10-23T03:36:36;16.80;86.70
53643;DHT22;39546;45.534;12.048;2022-10-23T03:42:39;16.80;86.70
53643;DHT22;39546;45.534;12.048;2022-10-23T03:48:42;16.80;86.70
53643;DHT22;39546;45.534;12.048;2022-10-23T03:54:44;16.80;86.70
53643;DHT22;39546;45.534;12.048;2022-10-23T04:00:47;16.80;86.70
53643;DHT22;39546;45.534;12.048;2022-10-23T04:06:49;16.80;86.70
53643;DHT22;39546;45.534;12.048;2022-10-23T04:12:53;16.80;86.70
53643;DHT22;39546;45.534;12.048;2022-10-23T04:18:55;16.80;86.60
53643;DHT22;39546;45.534;12.048;2022-10-23T04:24:57;16.70;86.60
53643;DHT22;39546;45.534;12.048;2022-10-23T04:30:59;16.60;86.70
53643;DHT22;39546;45.534;12.048;2022-10-23T04:37:02;16.60;86.70
53643;DHT22;39546;45.534;12.048;2022-10-23T04:43:04;16.60;86.70
53643;DHT22;39546;45.534;12.048;2022-10-23T04:49:06;16.50;86.80
53643;DHT22;39546;45.534;12.048;2022-10-23T04:55:14;16.50;86.70
53643;DHT22;39546;45.534;12.048;2022-10-23T05:01:16;16.50;86.70
53643;DHT22;39546;45.534;12.048;2022-10-23T05:07:18;16.50;86.70
53643;DHT22;39546;45.534;12.048;2022-10-23T05:13:20;16.50;86.70
53643;DHT22;39546;45.534;12.048;2022-10-23T05:19:26;16.50;86.60
53643;DHT22;39546;45.534;12.048;2022-10-23T05:26:05;16.50;86.50
53643;DHT22;39546;45.534;12.048;2022-10-23T05:32:09;16.40;86.60
53643;DHT22;39546;45.534;12.048;2022-10-23T05:38:13;16.40;86.60
53643;DHT22;39546;45.534;12.048;2022-10-23T05:44:16;16.30;86.60
53643;DHT22;39546;45.534;12.048;2022-10-23T05:50:21;16.40;86.60
53643;DHT22;39546;45.534;12.048;2022-10-23T05:56:23;16.30;86.50
53643;DHT22;39546;45.534;12.048;2022-10-23T06:02:42;16.20;86.60
53643;DHT22;39546;45.534;12.048;2022-10-23T06:08:45;16.20;86.60
53643;DHT22;39546;45.534;12.048;2022-10-23T06:15:09;16.30;86.60
53643;DHT22;39546;45.534;12.048;2022-10-23T06:21:16;16.30;86.50
53643;DHT22;39546;45.534;12.048;2022-10-23T06:27:19;16.30;86.50
53643;DHT22;39546;45.534;12.048;2022-10-23T06:33:21;16.30;86.50
53643;DHT22;39546;45.534;12.048;2022-10-23T06:39:24;16.20;86.60
53643;DHT22;39546;45.534;12.048;2022-10-23T06:45:28;16.30;86.50
53643;DHT22;39546;45.534;12.048;2022-10-23T06:51:32;16.30;86.60
53643;DHT22;39546;45.534;12.048;2022-10-23T06:57:34;16.30;86.50
53643;DHT22;39546;45.534;12.048;2022-10-23T07:03:36;16.30;86.60
53643;DHT22;39546;45.534;12.048;2022-10-23T07:09:59;16.40;86.50
53643;DHT22;39546;45.534;12.048;2022-10-23T07:16:17;16.50;86.50
53643;DHT22;39546;45.534;12.048;2022-10-23T07:22:30;16.60;86.50
53643;DHT22;39546;45.534;12.048;2022-10-23T07:28:35;16.70;86.70
53643;DHT22;39546;45.534;12.048;2022-10-23T07:34:37;16.70;86.80
53643;DHT22;39546;45.534;12.048;2022-10-23T07:40:43;16.80;86.70
53643;DHT22;39546;45.534;12.048;2022-10-23T07:46:45;16.80;86.80
53643;DHT22;39546;45.534;12.048;2022-10-23T07:52:48;16.90;86.80
53643;DHT22;39546;45.534;12.048;2022-10-23T07:59:00;17.00;87.00
53643;DHT22;39546;45.534;12.048;2022-10-23T08:05:04;17.00;87.00
53643;DHT22;39546;45.534;12.048;2022-10-23T08:11:11;17.10;87.00
53643;DHT22;39546;45.534;12.048;2022-10-23T08:17:15;17.10;86.90
53643;DHT22;39546;45.534;12.048;2022-10-23T08:23:19;17.20;86.90
53643;DHT22;39546;45.534;12.048;2022-10-23T08:29:21;17.30;86.80
53643;DHT22;39546;45.534;12.048;2022-10-23T08:35:24;17.40;86.80
53643;DHT22;39546;45.534;12.048;2022-10-23T08:41:35;17.50;86.60
53643;DHT22;39546;45.534;12.048;2022-10-23T08:47:47;17.50;86.40
53643;DHT22;39546;45.534;12.048;2022-10-23T08:54:01;17.70;86.30
53643;DHT22;39546;45.534;12.048;2022-10-23T09:00:06;17.80;86.10
53643;DHT22;39546;45.534;12.048;2022-10-23T09:06:27;17.90;85.90
53643;DHT22;39546;45.534;12.048;2022-10-23T09:12:31;18.00;85.70
53643;DHT22;39546;45.534;12.048;2022-10-23T09:18:33;18.10;85.50
53643;DHT22;39546;45.534;12.048;2022-10-23T09:24:35;18.10;85.40
53643;DHT22;39546;45.534;12.048;2022-10-23T09:30:40;18.30;85.50
53643;DHT22;39546;45.534;12.048;2022-10-23T09:36:49;18.30;85.30
53643;DHT22;39546;45.534;12.048;2022-10-23T09:42:55;18.40;85.30
53643;DHT22;39546;45.534;12.048;2022-10-23T09:48:57;18.60;85.30
53643;DHT22;39546;45.534;12.048;2022-10-23T09:55:01;18.70;85.00
53643;DHT22;39546;45.534;12.048;2022-10-23T10:01:04;18.80;84.70
53643;DHT22;39546;45.534;12.048;2022-10-23T10:07:23;18.90;84.30
53643;DHT22;39546;45.534;12.048;2022-10-23T10:44:44;19.70;82.70
53643;DHT22;39546;45.534;12.048;2022-10-23T10:51:01;19.80;82.50
53643;DHT22;39546;45.534;12.048;2022-10-23T10:57:40;19.80;82.30
53643;DHT22;39546;45.534;12.048;2022-10-23T11:03:54;19.80;82.40
53643;DHT22;39546;45.534;12.048;2022-10-23T11:09:59;20.10;81.90
53643;DHT22;39546;45.534;12.048;2022-10-23T11:16:23;20.20;81.40
53643;DHT22;39546;45.534;12.048;2022-10-23T11:22:55;20.40;80.90
53643;DHT22;39546;45.534;12.048;2022-10-23T11:29:10;20.60;80.50
53643;DHT22;39546;45.534;12.048;2022-10-23T11:41:24;20.40;80.70
53643;DHT22;39546;45.534;12.048;2022-10-23T11:47:37;20.20;81.00
53643;DHT22;39546;45.534;12.048;2022-10-23T11:53:40;20.20;81.20
53643;DHT22;39546;45.534;12.048;2022-10-23T12:06:01;20.30;81.00
53643;DHT22;39546;45.534;12.048;2022-10-23T12:12:15;20.40;80.80
53643;DHT22;39546;45.534;12.048;2022-10-23T12:18:18;20.50;80.60
53643;DHT22;39546;45.534;12.048;2022-10-23T12:44:04;20.70;80.40
53643;DHT22;39546;45.534;12.048;2022-10-23T12:50:21;20.70;80.30
53643;DHT22;39546;45.534;12.048;2022-10-23T12:56:25;20.70;80.30
53643;DHT22;39546;45.534;12.048;2022-10-23T13:02:30;20.70;80.40
53643;DHT22;39546;45.534;12.048;2022-10-23T13:08:38;20.70;80.30
53643;DHT22;39546;45.534;12.048;2022-10-23T13:15:17;20.80;80.20
53643;DHT22;39546;45.534;12.048;2022-10-23T13:21:24;20.80;80.10
53643;DHT22;39546;45.534;12.048;2022-10-23T13:27:33;20.90;80.00
53643;DHT22;39546;45.534;12.048;2022-10-23T13:33:48;21.00;79.90
53643;DHT22;39546;45.534;12.048;2022-10-23T13:40:25;21.10;79.70
53643;DHT22;39546;45.534;12.048;2022-10-23T13:46:28;21.30;79.40
53643;DHT22;39546;45.534;12.048;2022-10-23T13:52:30;21.30;79.10
53643;DHT22;39546;45.534;12.048;2022-10-23T13:58:33;21.30;79.30
53643;DHT22;39546;45.534;12.048;2022-10-23T14:04:35;21.30;79.40
53643;DHT22;39546;45.534;12.048;2022-10-23T14:10:37;21.30;79.50
53643;DHT22;39546;45.534;12.048;2022-10-23T14:16:39;21.10;79.60
53643;DHT22;39546;45.534;12.048;2022-10-23T14:22:42;21.00;79.90
53643;DHT22;39546;45.534;12.048;2022-10-23T14:28:45;20.90;80.10
53643;DHT22;39546;45.534;12.048;2022-10-23T14:34:52;20.80;80.30
53643;DHT22;39546;45.534;12.048;2022-10-23T14:40:55;20.80;80.40
53643;DHT22;39546;45.534;12.048;2022-10-23T14:46:58;20.70;80.60
53643;DHT22;39546;45.534;12.048;2022-10-23T14:53:02;20.70;80.70
53643;DHT22;39546;45.534;12.048;2022-10-23T14:59:05;20.60;80.90
53643;DHT22;39546;45.534;12.048;2022-10-23T15:05:07;20.50;81.00
53643;DHT22;39546;45.534;12.048;2022-10-23T15:11:09;20.50;81.20
53643;DHT22;39546;45.534;12.048;2022-10-23T15:17:16;20.50;81.20
53643;DHT22;39546;45.534;12.048;2022-10-23T15:23:18;20.40;81.40
53643;DHT22;39546;45.534;12.048;2022-10-23T15:29:20;20.30;81.60
53643;DHT22;39546;45.534;12.048;2022-10-23T15:35:22;20.30;81.70
53643;DHT22;39546;45.534;12.048;2022-10-23T15:41:32;20.30;81.70
53643;DHT22;39546;45.534;12.048;2022-10-23T15:47:36;20.30;81.80
53643;DHT22;39546;45.534;12.048;2022-10-23T15:53:38;20.20;81.90
53643;DHT22;39546;45.534;12.048;2022-10-23T15:59:40;20.10;82.00
53643;DHT22;39546;45.534;12.048;2022-10-23T16:05:42;20.10;82.20
53643;DHT22;39546;45.534;12.048;2022-10-23T16:11:44;20.00;82.30
53643;DHT22;39546;45.534;12.048;2022-10-23T16:17:46;19.90;82.50
53643;DHT22;39546;45.534;12.048;2022-10-23T16:24:12;19.80;82.60
53643;DHT22;39546;45.534;12.048;2022-10-23T16:30:14;19.80;82.70
53643;DHT22;39546;45.534;12.048;2022-10-23T16:36:17;19.70;82.80
53643;DHT22;39546;45.534;12.048;2022-10-23T16:42:30;19.60;82.80
53643;DHT22;39546;45.534;12.048;2022-10-23T16:48:35;19.50;83.00
53643;DHT22;39546;45.534;12.048;2022-10-23T16:54:38;19.40;83.00
53643;DHT22;39546;45.534;12.048;2022-10-23T17:00:41;19.30;83.10
53643;DHT22;39546;45.534;12.048;2022-10-23T17:07:12;19.30;83.10
53643;DHT22;39546;45.534;12.048;2022-10-23T17:13:15;19.30;83.20
53643;DHT22;39546;45.534;12.048;2022-10-23T17:19:19;19.30;83.30
53643;DHT22;39546;45.534;12.048;2022-10-23T17:25:22;19.20;83.30
53643;DHT22;39546;45.534;12.048;2022-10-23T17:31:33;19.20;83.30
53643;DHT22;39546;45.534;12.048;2022-10-23T17:37:35;19.20;83.30
53643;DHT22;39546;45.534;12.048;2022-10-23T17:43:38;19.20;83.30
53643;DHT22;39546;45.534;12.048;2022-10-23T17:49:40;19.20;83.40
53643;DHT22;39546;45.534;12.048;2022-10-23T17:56:05;19.20;83.40
53643;DHT22;39546;45.534;12.048;2022-10-23T18:02:10;19.10;83.50
53643;DHT22;39546;45.534;12.048;2022-10-23T18:08:14;19.00;83.60
53643;DHT22;39546;45.534;12.048;2022-10-23T18:14:19;19.00;83.70
53643;DHT22;39546;45.534;12.048;2022-10-23T18:20:21;19.00;83.70
53643;DHT22;39546;45.534;12.048;2022-10-23T18:26:26;18.90;83.80
53643;DHT22;39546;45.534;12.048;2022-10-23T18:32:28;18.90;83.80
53643;DHT22;39546;45.534;12.048;2022-10-23T18:38:30;18.80;84.00
53643;DHT22;39546;45.534;12.048;2022-10-23T18:44:33;18.80;84.10
53643;DHT22;39546;45.534;12.048;2022-10-23T18:50:36;18.80;84.10
53643;DHT22;39546;45.534;12.048;2022-10-23T18:56:38;18.80;84.00
53643;DHT22;39546;45.534;12.048;2022-10-23T19:02:41;18.70;84.10
53643;DHT22;39546;45.534;12.048;2022-10-23T19:08:43;18.70;84.20
53643;DHT22;39546;45.534;12.048;2022-10-23T19:15:21;18.70;84.40
53643;DHT22;39546;45.534;12.048;2022-10-23T19:21:25;18.70;84.40
53643;DHT22;39546;45.534;12.048;2022-10-23T19:27:31;18.60;84.40
53643;DHT22;39546;45.534;12.048;2022-10-23T19:33:34;18.60;84.50
53643;DHT22;39546;45.534;12.048;2022-10-23T19:39:36;18.60;84.50
53643;DHT22;39546;45.534;12.048;2022-10-23T19:45:39;18.50;84.60
53643;DHT22;39546;45.534;12.048;2022-10-23T19:51:48;18.50;84.60
53643;DHT22;39546;45.534;12.048;2022-10-23T19:57:51;18.50;84.70
53643;DHT22;39546;45.534;12.048;2022-10-23T20:03:53;18.40;84.80
53643;DHT22;39546;45.534;12.048;2022-10-23T20:09:59;18.40;84.90
53643;DHT22;39546;45.534;12.048;2022-10-23T20:16:01;18.40;84.90
53643;DHT22;39546;45.534;12.048;2022-10-23T20:22:10;18.40;84.90
53643;DHT22;39546;45.534;12.048;2022-10-23T20:28:20;18.50;84.80
53643;DHT22;39546;45.534;12.048;2022-10-23T20:34:22;18.50;84.80
53643;DHT22;39546;45.534;12.048;2022-10-23T20:40:24;18.40;84.90
53643;DHT22;39546;45.534;12.048;2022-10-23T20:46:27;18.40;84.90
53643;DHT22;39546;45.534;12.048;2022-10-23T20:52:30;18.40;85.00
53643;DHT22;39546;45.534;12.048;2022-10-23T20:58:34;18.40;84.90
53643;DHT22;39546;45.534;12.048;2022-10-23T21:04:36;18.40;84.90
53643;DHT22;39546;45.534;12.048;2022-10-23T21:10:44;18.40;84.90
53643;DHT22;39546;45.534;12.048;2022-10-23T21:16:46;18.30;85.00
53643;DHT22;39546;45.534;12.048;2022-10-23T21:22:51;18.30;85.00
53643;DHT22;39546;45.534;12.048;2022-10-23T21:28:57;18.30;85.10
53643;DHT22;39546;45.534;12.048;2022-10-23T21:34:59;18.30;85.10
53643;DHT22;39546;45.534;12.048;2022-10-23T21:41:08;18.20;85.10
53643;DHT22;39546;45.534;12.048;2022-10-23T21:47:11;18.20;85.20
53643;DHT22;39546;45.534;12.048;2022-10-23T21:53:13;18.20;85.30
53643;DHT22;39546;45.534;12.048;2022-10-23T21:59:21;18.20;85.30
53643;DHT22;39546;45.534;12.048;2022-10-23T22:05:23;18.20;85.30
53643;DHT22;39546;45.534;12.048;2022-10-23T22:11:26;18.20;85.30
53643;DHT22;39546;45.534;12.048;2022-10-23T22:17:28;18.20;85.20
53643;DHT22;39546;45.534;12.048;2022-10-23T22:23:30;18.20;85.10
53643;DHT22;39546;45.534;12.048;2022-10-23T22:29:32;18.10;85.20
53643;DHT22;39546;45.534;12.048;2022-10-23T22:36:02;18.10;85.20
53643;DHT22;39546;45.534;12.048;2022-10-23T22:42:05;18.00;85.20
53643;DHT22;39546;45.534;12.048;2022-10-23T22:48:07;18.10;85.30
53643;DHT22;39546;45.534;12.048;2022-10-23T22:54:09;18.00;85.40
53643;DHT22;39546;45.534;12.048;2022-10-23T23:00:12;18.10;85.40
53643;DHT22;39546;45.534;12.048;2022-10-23T23:06:20;18.10;85.30
53643;DHT22;39546;45.534;12.048;2022-10-23T23:12:22;18.10;85.30
53643;DHT22;39546;45.534;12.048;2022-10-23T23:18:24;18.20;85.20
53643;DHT22;39546;45.534;12.048;2022-10-23T23:24:27;18.20;85.30
53643;DHT22;39546;45.534;12.048;2022-10-23T23:30:29;18.10;85.40
53643;DHT22;39546;45.534;12.048;2022-10-23T23:36:47;18.10;85.50
53643;DHT22;39546;45.534;12.048;2022-10-23T23:42:50;18.10;85.70
53643;DHT22;39546;45.534;12.048;2022-10-23T23:48:52;18.10;85.70
53643;DHT22;39546;45.534;12.048;2022-10-23T23:54:56;18.10;85.70
